Weather observations for the past three days for
Bridgeport, Sikorsky Memorial Airport
| Date | Time (edt) | Wind (mph) | Vis. (mi.) | Weather | Sky Cond. | Temperature (ºF) | Relative Humidity | Wind Chill (°F) | Heat Index (°F) | Pressure | Precipitation (in) | ||||||
|---|---|---|---|---|---|---|---|---|---|---|---|---|---|---|---|---|---|
| Air | Dwpt | 6 hour | altimeter (in) | sea level (mb) | 1 hr | 3 hr | 6 hr | ||||||||||
| Max. | Min. | ||||||||||||||||
| 03 | 02:52 | Calm | 9.00 | Light Rain | SCT006 OVC012 | 69.1 | 68 | 96% | 30 | 1015.8 | 0.04 | ||||||
| 03 | 01:52 | Calm | 3.00 | Light Rain Fog/Mist | OVC013 | 69.1 | 68 | 70 | 69.1 | 96% | 30.03 | 1016.8 | 0.06 | 0.08 | |||
| 02 | 23:52 | SE 6 | 10.00 | Overcast | OVC016 | 70 | 66 | 87% | 30.07 | 1018.1 | |||||||
| 02 | 22:52 | E 8 | 10.00 | Overcast | OVC017 | 70 | 64.9 | 84% | 30.08 | 1018.7 | |||||||
| 02 | 21:52 | SE 10 | 10.00 | Overcast | OVC018 | 70 | 64.9 | 84% | 30.09 | 1019.0 | |||||||
| 02 | 20:52 | SE 10 | 10.00 | Overcast | BKN019 BKN050 OVC065 | 70 | 64 | 82% | 30.1 | 1019.4 | |||||||
| 02 | 19:52 | E 9 G 21 | 10.00 | Overcast | FEW022 BKN050 OVC065 | 70 | 64 | 72 | 68 | 82% | 30.08 | 1018.5 | 0.07 | ||||
| 02 | 18:52 | E 10 | 10.00 | Overcast | BKN021 BKN027 OVC047 | 70 | 64 | 82% | 30.11 | 1019.7 | |||||||
| 02 | 17:52 | E 8 | 10.00 | Overcast | SCT025 BKN070 OVC110 | 71.1 | 63 | 76% | 30.12 | 1020.0 | |||||||
| 02 | 16:52 | E 9 | 10.00 | A Few Clouds | FEW110 | 70 | 63 | 79% | 30.11 | 1019.7 | 0.01 | 0.07 | |||||
| 02 | 12:52 | E 13 | 10.00 | Overcast | OVC041 | 70 | 61 | 73% | 30.14 | 1020.4 | |||||||
| 02 | 11:52 | E 15 | 10.00 | Partly Cloudy | SCT044 | 70 | 62.1 | 76% | 30.15 | 1020.9 | |||||||
| 02 | 10:52 | E 12 | 10.00 | Overcast | OVC031 | 69.1 | 61 | 76% | 30.15 | 1021.1 | |||||||
| 02 | 09:52 | E 9 | 10.00 | Overcast | SCT018 OVC031 | 68 | 60.1 | 76% | 30.15 | 1021.1 | |||||||
| 02 | 08:52 | NE 10 | 10.00 | Overcast | BKN015 OVC031 | 66.9 | 61 | 81% | 30.14 | 1020.5 | |||||||
| 02 | 07:52 | NE 10 | 10.00 | Overcast | OVC022 | 64.9 | 60.1 | 64.9 | 63 | 84% | 30.14 | 1020.5 | |||||
| 02 | 06:52 | NE 9 | 10.00 | Overcast | OVC023 | 64 | 60.1 | 87% | 30.14 | 1020.5 | |||||||
| 02 | 05:52 | NE 9 | 10.00 | Overcast | OVC020 | 64 | 60.1 | 87% | 30.12 | 1020.0 | |||||||
| 02 | 04:52 | NE 10 | 10.00 | Overcast | OVC015 | 64 | 60.1 | 87% | 30.11 | 1019.4 | |||||||
| 02 | 03:52 | NE 9 | 10.00 | Overcast | OVC014 | 64 | 61 | 90% | 30.1 | 1019.2 | |||||||
| 02 | 02:52 | N 7 | 10.00 | Overcast | OVC010 | 64 | 61 | 90% | 30.09 | 1018.9 | |||||||
| 02 | 01:52 | N 10 | 10.00 | Overcast | OVC007 | 63 | 62.1 | 66.9 | 63 | 97% | 30.09 | 1019.0 | |||||
| 02 | 00:52 | NE 9 | 9.00 | Overcast | OVC008 | 63 | 62.1 | 97% | 30.09 | 1018.9 | |||||||
| 01 | 23:52 | NE 10 | 2.50 | Fog/Mist | OVC007 | 64 | 62.1 | 93% | 30.08 | 1018.5 | |||||||
| 01 | 22:52 | NE 10 | 10.00 | Overcast | OVC010 | 64.9 | 61 | 87% | 30.07 | 1018.4 | |||||||
| 01 | 21:52 | NE 10 | 10.00 | Overcast | OVC010 | 64.9 | 62.1 | 90% | 30.06 | 1017.7 | |||||||
| 01 | 19:52 | NE 15 G 24 | 10.00 | Overcast | OVC014 | 66.9 | 62.1 | 75 | 66.9 | 84% | 30.03 | 1016.8 | |||||
| 01 | 18:52 | E 22 | 10.00 | Overcast and Breezy | OVC016 | 69.1 | 63 | 81% | 30.01 | 1016.1 | |||||||
| 01 | 17:52 | E 18 | 10.00 | Overcast | OVC009 | 70 | 64.9 | 84% | 29.98 | 1015.3 | |||||||
| 01 | 16:52 | E 17 | 8.00 | Overcast | OVC006 | 70 | 68 | 93% | 29.99 | 1015.3 | |||||||
| 01 | 15:52 | E 13 | 8.00 | Overcast | OVC006 | 72 | 69.1 | 91% | 29.97 | 1014.9 | |||||||
| 01 | 14:52 | SE 5 | 9.00 | Overcast | OVC007 | 73.9 | 71.1 | 91% | 29.96 | 1014.5 | |||||||
| 01 | 13:52 | S 6 | 9.00 | Overcast | BKN006 OVC014 | 73.9 | 72 | 73.9 | 71.1 | 94% | 29.97 | 1014.7 | 0.2 | ||||
| 01 | 11:52 | SW 7 | 3.00 | Light Rain Fog/Mist | BKN006 OVC015 | 72 | 71.1 | 97% | 30 | 1016.0 | 0.01 | ||||||
| 01 | 10:52 | S 5 | 1.75 | Light Rain Fog/Mist | OVC006 | 72 | 71.1 | 97% | 30 | 1015.8 | 0.07 | 0.19 | |||||
| 01 | 09:52 | S 5 | 0.75 | Rain Fog/Mist | OVC008 | 72 | 70 | 94% | 30.01 | 1016.2 | 0.12 | ||||||
| 01 | 08:52 | S 5 | 10.00 | Overcast | OVC008 | 72 | 70 | 94% | 30 | 1016.0 | |||||||
| 01 | 07:52 | S 3 | 9.00 | Overcast | BKN009 OVC012 | 71.1 | 69.1 | 71.1 | 69.1 | 94% | 30.01 | 1016.3 | 0.89 | ||||
| 01 | 06:52 | S 5 | 10.00 | Overcast | OVC017 | 70 | 69.1 | 97% | 30.01 | 1016.2 | |||||||
| 01 | 05:52 | S 3 | 10.00 | Overcast | BKN007 OVC023 | 70 | 69.1 | 97% | 30.01 | 1016.1 | 0.03 | ||||||
| 01 | 04:52 | S 3 | 2.50 | Light Rain Fog/Mist | OVC004 | 70 | 69.1 | 97% | 30.02 | 1016.4 | 0.06 | 0.86 | |||||
| 01 | 03:52 | S 7 | 3.00 | Light Rain Fog/Mist | FEW008 BKN016 OVC024 | 69.1 | 69.1 | 100% | 30.03 | 1016.8 | 0.55 | ||||||
| 01 | 02:52 | SW 5 | 1.25 | Heavy Rain Fog/Mist | FEW006 BKN010 OVC026 | 70 | 68 | 93% | 30.03 | 1017.0 | 0.25 | ||||||
| 01 | 01:52 | SW 7 | 6.00 | Light Rain Fog/Mist | FEW011 BKN023 OVC033 | 70 | 66.9 | 73 | 70 | 90% | 30.04 | 1017.4 | 0.03 | 0.03 | |||
| 01 | 00:52 | SE 3 | 10.00 | Overcast | OVC038 | 72 | 68 | 87% | 30.05 | 1017.6 | |||||||
| 31 | 23:52 | S 6 | 10.00 | Overcast | OVC038 | 72 | 66.9 | 84% | 30.06 | 1017.8 | |||||||
| 31 | 22:52 | S 7 | 10.00 | Overcast | OVC037 | 73 | 64.9 | 76% | 30.07 | 1018.4 | |||||||
| 31 | 21:52 | S 8 | 10.00 | Overcast | OVC040 | 72 | 64.9 | 79% | 30.08 | 1018.4 | |||||||
| 31 | 20:52 | S 6 | 10.00 | Overcast | BKN036 OVC045 | 73 | 64.9 | 76% | 30.08 | 1018.5 | |||||||
| 31 | 19:52 | S 7 | 10.00 | Overcast | OVC039 | 73 | 64.9 | 75.9 | 73 | 76% | 30.07 | 1018.2 | |||||
| 31 | 18:52 | S 9 | 10.00 | Overcast | BKN026 OVC043 | 73.9 | 64 | 71% | 30.08 | 1018.6 | |||||||
| 31 | 17:52 | E 7 | 10.00 | Overcast | BKN038 BKN046 OVC060 | 75 | 64 | 69% | 77 | 30.08 | 1018.6 | ||||||
| 31 | 16:52 | SE 8 | 10.00 | Mostly Cloudy | SCT042 BKN090 | 73.9 | 64.9 | 74% | 30.09 | 1018.8 | |||||||
| 31 | 15:52 | E 8 | 10.00 | A Few Clouds | FEW090 | 73.9 | 64.9 | 74% | 30.09 | 1019.0 | |||||||
| 31 | 14:52 | E 8 | 10.00 | A Few Clouds | FEW080 | 73.9 | 64 | 71% | 30.11 | 1019.6 | |||||||
| 31 | 13:52 | E 10 | 10.00 | A Few Clouds | FEW100 | 75 | 63 | 75.9 | 69.1 | 66% | 77 | 30.13 | 1020.2 | ||||
| 31 | 12:52 | E 9 | 10.00 | Fair | CLR | 73.9 | 60.1 | 62% | 30.13 | 1020.3 | |||||||
| 31 | 11:52 | E 10 | 10.00 | Fair | CLR | 73.9 | 61 | 64% | 30.14 | 1020.5 | |||||||
| 31 | 10:52 | E 9 | 10.00 | Fair | CLR | 75 | 62.1 | 64% | 77 | 30.14 | 1020.6 | ||||||
| 31 | 09:52 | E 8 | 10.00 | Fair | CLR | 73.9 | 62.1 | 67% | 30.13 | 1020.3 | |||||||
| 31 | 08:52 | N 8 | 10.00 | Fair | CLR | 72 | 62.1 | 71% | 30.13 | 1020.1 | |||||||
| 31 | 07:52 | N 6 | 10.00 | Fair | CLR | 69.1 | 63 | 70 | 66.9 | 81% | 30.13 | 1020.2 | |||||
| 31 | 06:52 | N 6 | 10.00 | Fair | CLR | 66.9 | 62.1 | 84% | 30.1 | 1019.3 | |||||||
| 31 | 05:52 | N 6 | 10.00 | Fair | CLR | 66.9 | 64 | 91% | 30.09 | 1018.9 | |||||||
| 31 | 04:52 | N 5 | 10.00 | Fair | CLR | 68 | 64 | 87% | 30.09 | 1018.8 | |||||||
| Date | Time (edt) | Wind (mph) | Vis. (mi.) | Weather | Sky Cond. | Air | Dwpt | Max. | Min. | Relative Humidity | Wind Chill (°F) | Heat Index (°F) | altimeter (in) | sea level (mb) | 1 hr | 3 hr | 6 hr |
| 6 hour | |||||||||||||||||
| Temperature (ºF) | Pressure | Precipitation (in) | |||||||||||||||